createdAt,value
2023-04-09T00:02:48.206Z,11.70
2023-04-09T00:07:50.293Z,11.70
2023-04-09T00:12:52.197Z,11.70
2023-04-09T00:17:54.070Z,11.60
2023-04-09T00:22:56.508Z,11.50
2023-04-09T00:27:59.175Z,11.30
2023-04-09T00:33:01.778Z,11.20
2023-04-09T00:38:07.616Z,11.10
2023-04-09T00:43:09.837Z,11.10
2023-04-09T00:48:13.365Z,11.10
2023-04-09T00:53:17.767Z,11.10
2023-04-09T00:58:19.740Z,11.00
2023-04-09T01:03:22.120Z,11.00
2023-04-09T01:08:35.266Z,11.00
2023-04-09T01:13:55.676Z,11.00
2023-04-09T01:19:02.357Z,11.10
2023-04-09T01:24:31.675Z,11.20
2023-04-09T01:29:51.597Z,11.10
2023-04-09T01:34:54.623Z,11.00
2023-04-09T01:39:56.940Z,10.90
2023-04-09T01:44:59.466Z,10.90
2023-04-09T01:50:02.602Z,10.80
2023-04-09T01:55:06.069Z,10.60
2023-04-09T02:00:09.397Z,10.50
2023-04-09T02:05:23.243Z,10.50
2023-04-09T02:10:27.270Z,10.40
2023-04-09T02:15:31.856Z,10.40
2023-04-09T02:20:33.706Z,10.40
2023-04-09T02:25:35.737Z,10.40
2023-04-09T02:30:37.686Z,10.40
2023-04-09T02:35:39.805Z,10.40
2023-04-09T02:40:41.912Z,10.40
2023-04-09T02:45:43.744Z,10.40
2023-04-09T02:50:45.612Z,10.40
2023-04-09T02:55:47.992Z,10.30
2023-04-09T03:01:03.922Z,10.30
2023-04-09T03:12:00.528Z,10.30
2023-04-09T03:17:22.253Z,10.30
2023-04-09T03:23:22.097Z,10.30
2023-04-09T03:28:43.449Z,10.30
2023-04-09T03:34:15.890Z,10.20
2023-04-09T03:39:37.419Z,10.00
2023-04-09T03:44:52.398Z,9.90
2023-04-09T03:50:32.583Z,9.80
2023-04-09T03:56:18.157Z,9.80
2023-04-09T04:01:52.505Z,9.70
2023-04-09T04:07:24.140Z,9.60
2023-04-09T04:12:34.564Z,9.40
2023-04-09T04:18:06.572Z,9.30
2023-04-09T04:24:12.572Z,9.30
2023-04-09T04:29:53.110Z,9.20
2023-04-09T04:35:48.371Z,9.30
2023-04-09T04:41:31.164Z,9.20
2023-04-09T04:47:00.344Z,9.10
2023-04-09T04:52:13.073Z,9.00
2023-04-09T04:57:23.854Z,9.00
2023-04-09T05:02:30.473Z,8.80
2023-04-09T05:08:10.047Z,8.70
2023-04-09T05:13:50.542Z,8.70
2023-04-09T05:19:11.611Z,8.70
2023-04-09T05:24:23.249Z,8.60
2023-04-09T05:30:01.311Z,8.60
2023-04-09T05:40:41.562Z,8.60
2023-04-09T05:51:50.374Z,8.60
2023-04-09T05:57:34.894Z,8.60
2023-04-09T06:03:06.386Z,8.70
2023-04-09T06:09:04.595Z,8.80
2023-04-09T06:26:34.827Z,9.00
2023-04-09T06:44:02.213Z,9.30
2023-04-09T06:55:01.113Z,9.50
2023-04-09T07:00:38.700Z,9.70
2023-04-09T07:06:35.405Z,9.80
2023-04-09T07:12:03.337Z,9.90
2023-04-09T07:17:35.907Z,9.90
2023-04-09T07:23:01.578Z,10.00
2023-04-09T07:40:32.402Z,10.20
2023-04-09T07:52:25.646Z,10.40
2023-04-09T07:57:59.588Z,10.60
2023-04-09T08:03:38.452Z,10.70
2023-04-09T08:15:08.406Z,11.00
2023-04-09T08:27:03.553Z,11.50
2023-04-09T08:44:36.119Z,12.40
2023-04-09T08:49:56.876Z,12.50
2023-04-09T08:55:35.499Z,12.80
2023-04-09T09:01:17.014Z,13.00
2023-04-09T09:06:28.716Z,13.30
2023-04-09T09:11:31.080Z,13.30
2023-04-09T09:16:34.893Z,13.30
2023-04-09T09:21:36.905Z,13.10
2023-04-09T09:26:38.824Z,12.90
2023-04-09T09:31:51.496Z,12.90
2023-04-09T09:36:53.651Z,13.10
2023-04-09T09:42:08.116Z,13.30
2023-04-09T09:47:13.292Z,13.50
2023-04-09T09:52:17.648Z,13.60
2023-04-09T09:57:22.231Z,13.90
2023-04-09T10:02:27.017Z,14.10
2023-04-09T10:07:30.076Z,14.40
2023-04-09T10:12:33.004Z,14.70
2023-04-09T10:17:34.908Z,15.00
2023-04-09T10:22:37.326Z,15.20
2023-04-09T10:27:39.331Z,15.40
2023-04-09T10:32:42.596Z,15.60
2023-04-09T10:37:50.581Z,15.50
2023-04-09T10:42:54.808Z,15.70
2023-04-09T10:47:56.685Z,15.70
2023-04-09T10:53:00.679Z,15.80
2023-04-09T10:58:04.351Z,15.80
2023-04-09T11:03:23.375Z,15.90
2023-04-09T11:08:29.538Z,16.10
2023-04-09T11:13:32.520Z,16.30
2023-04-09T11:18:35.553Z,16.50
2023-04-09T11:23:37.349Z,16.60
2023-04-09T11:28:42.979Z,16.50
2023-04-09T11:33:47.985Z,16.40
2023-04-09T11:38:51.517Z,16.60
2023-04-09T11:43:53.513Z,16.90
2023-04-09T11:48:56.373Z,16.90
2023-04-09T11:54:03.394Z,17.00
2023-04-09T11:59:05.544Z,17.00
2023-04-09T12:04:07.981Z,17.00
2023-04-09T12:09:13.628Z,17.00
2023-04-09T12:14:17.372Z,17.10
2023-04-09T12:19:22.791Z,17.40
2023-04-09T12:24:26.007Z,17.70
2023-04-09T12:29:29.828Z,17.80
2023-04-09T12:34:32.016Z,18.00
2023-04-09T12:39:34.459Z,18.20
2023-04-09T12:44:37.282Z,18.40
2023-04-09T12:49:41.057Z,18.60
2023-04-09T12:54:44.422Z,18.60
2023-04-09T12:59:46.329Z,18.80
2023-04-09T13:04:48.826Z,18.90
2023-04-09T13:09:51.280Z,18.80
2023-04-09T13:14:54.652Z,18.70
2023-04-09T13:19:56.605Z,18.80
2023-04-09T13:24:58.465Z,18.90
2023-04-09T13:30:00.334Z,19.10
2023-04-09T13:35:02.209Z,19.20
2023-04-09T13:40:04.367Z,19.40
2023-04-09T13:45:06.824Z,19.40
2023-04-09T13:50:10.387Z,19.30
2023-04-09T13:55:12.311Z,19.20
2023-04-09T14:00:14.371Z,19.30
2023-04-09T14:05:16.520Z,19.40
2023-04-09T14:10:18.459Z,19.60
2023-04-09T14:15:20.455Z,19.60
2023-04-09T14:20:24.535Z,19.60
2023-04-09T14:25:26.368Z,19.70
2023-04-09T14:30:28.224Z,19.80
2023-04-09T14:35:30.338Z,19.90
2023-04-09T14:40:32.324Z,20.00
2023-04-09T14:45:34.138Z,20.00
2023-04-09T14:50:36.657Z,20.10
2023-04-09T14:55:38.996Z,20.20
2023-04-09T15:00:41.268Z,20.00
2023-04-09T15:05:43.074Z,20.00
2023-04-09T15:10:44.940Z,20.10
2023-04-09T15:15:46.798Z,20.20
2023-04-09T15:20:48.966Z,20.10
2023-04-09T15:25:51.124Z,20.20
2023-04-09T15:30:55.382Z,20.20
2023-04-09T15:35:57.199Z,20.10
2023-04-09T15:40:59.059Z,20.20
2023-04-09T15:46:08.457Z,20.20
2023-04-09T15:51:14.010Z,20.20
2023-04-09T15:56:16.099Z,20.20
2023-04-09T16:01:18.274Z,20.30
2023-04-09T16:06:21.173Z,20.30
2023-04-09T16:11:26.109Z,20.40
2023-04-09T16:16:28.216Z,20.30
2023-04-09T16:21:30.266Z,20.30
2023-04-09T16:26:32.355Z,20.30
2023-04-09T16:31:35.552Z,20.10
2023-04-09T16:36:37.606Z,20.00
2023-04-09T16:41:39.613Z,19.70
2023-04-09T16:46:42.814Z,19.50
2023-04-09T16:51:46.145Z,19.10
2023-04-09T16:56:48.812Z,19.10
2023-04-09T17:01:51.842Z,19.10
2023-04-09T17:06:54.148Z,18.90
2023-04-09T17:11:57.999Z,19.00
2023-04-09T17:17:00.247Z,19.30
2023-04-09T17:22:02.719Z,19.40
2023-04-09T17:27:04.772Z,19.40
2023-04-09T17:32:06.775Z,19.40
2023-04-09T17:37:08.696Z,19.50
2023-04-09T17:42:12.160Z,19.40
2023-04-09T17:47:14.159Z,19.30
2023-04-09T17:52:16.413Z,19.30
2023-04-09T17:57:18.743Z,19.10
2023-04-09T18:02:21.640Z,19.00
2023-04-09T18:07:24.473Z,18.80
2023-04-09T18:12:26.613Z,18.60
2023-04-09T18:17:28.943Z,18.40
2023-04-09T18:22:31.318Z,18.20
2023-04-09T18:27:33.772Z,18.00
2023-04-09T18:32:35.916Z,17.80
2023-04-09T18:37:38.317Z,17.60
2023-04-09T18:42:40.465Z,17.30
2023-04-09T18:47:42.658Z,17.00
2023-04-09T18:52:44.930Z,16.80
2023-04-09T18:57:47.473Z,16.70
2023-04-09T19:02:49.970Z,16.60
2023-04-09T19:07:57.177Z,16.40
2023-04-09T19:12:59.435Z,16.30
2023-04-09T19:18:01.458Z,16.10
2023-04-09T19:23:03.445Z,16.00
2023-04-09T19:28:05.642Z,16.00
2023-04-09T19:33:07.699Z,15.70
2023-04-09T19:38:09.806Z,15.60
2023-04-09T19:43:12.173Z,15.40
2023-04-09T19:48:14.232Z,15.20
2023-04-09T19:53:16.322Z,15.10
2023-04-09T19:58:18.595Z,15.10
2023-04-09T20:03:20.817Z,15.00
2023-04-09T20:08:23.371Z,14.80
2023-04-09T20:13:26.272Z,14.80
2023-04-09T20:18:28.715Z,14.70
2023-04-09T20:23:30.735Z,14.50
2023-04-09T20:28:34.161Z,14.50
2023-04-09T20:33:36.119Z,14.40
2023-04-09T20:38:38.305Z,14.30
2023-04-09T20:43:40.513Z,14.30
2023-04-09T20:48:44.202Z,14.30
2023-04-09T20:53:46.254Z,14.20
2023-04-09T20:58:48.258Z,14.10
2023-04-09T21:03:50.468Z,14.10
2023-04-09T21:08:53.009Z,14.00
2023-04-09T21:13:55.807Z,14.00
2023-04-09T21:18:58.451Z,13.70
2023-04-09T21:24:00.559Z,13.50
2023-04-09T21:29:02.660Z,13.30
2023-04-09T21:34:05.257Z,13.30
2023-04-09T21:39:07.222Z,13.20
2023-04-09T21:44:09.382Z,13.20
2023-04-09T21:49:11.347Z,13.20
2023-04-09T21:54:13.212Z,13.30
2023-04-09T21:59:15.476Z,13.20
2023-04-09T22:04:17.298Z,13.10
2023-04-09T22:09:19.133Z,12.90
2023-04-09T22:14:22.032Z,12.90
2023-04-09T22:19:28.403Z,12.80
2023-04-09T22:24:30.440Z,12.80
2023-04-09T22:29:32.846Z,12.80
2023-04-09T22:34:34.676Z,12.80
2023-04-09T22:39:36.535Z,12.70
2023-04-09T22:44:40.043Z,12.60
2023-04-09T22:49:41.901Z,12.60
2023-04-09T22:54:43.761Z,12.50
2023-04-09T22:59:45.759Z,12.40
2023-04-09T23:04:47.671Z,12.30
2023-04-09T23:09:49.568Z,12.20
2023-04-09T23:14:51.468Z,12.20
2023-04-09T23:19:53.310Z,12.20
2023-04-09T23:24:55.137Z,12.20
2023-04-09T23:29:57.322Z,12.00
2023-04-09T23:35:01.127Z,11.80
2023-04-09T23:40:03.129Z,11.60
2023-04-09T23:45:06.017Z,11.60
2023-04-09T23:50:08.861Z,11.50
2023-04-09T23:55:10.787Z,11.30
